Time;durP1;ratioP1;P1;durP2;ratioP2;P2;SDS_P1;SDS_P2;PMS_P1;PMS_P2;Temp;Humidity;BMP_temperature;BMP_pressure;BME280_temperature;BME280_humidity;BME280_pressure;Samples;Min_cycle;Max_cycle;Signal;HPM_P1;HPM_P2
2024/01/24 00:01:26;;;;;;;3.08;0.50;;;;;;;;;;4953131;29;20046;-60
2024/01/24 00:03:52;;;;;;;3.15;1.30;;;;;;;;;;4953116;29;20032;-59
2024/01/24 00:06:18;;;;;;;4.07;0.68;;;;;;;;;;4952237;28;20126;-60
2024/01/24 00:08:44;;;;;;;5.47;0.70;;;;;;;;;;4952778;28;20063;-59
2024/01/24 00:11:10;;;;;;;5.45;0.70;;;;;;;;;;4952671;28;20146;-60
2024/01/24 00:13:37;;;;;;;1.50;0.70;;;;;;;;;;4953039;28;20153;-60
2024/01/24 00:16:04;;;;;;;1.08;0.40;;;;;;;;;;4953083;28;20058;-59
2024/01/24 00:18:30;;;;;;;3.30;0.65;;;;;;;;;;4952898;28;20047;-60
2024/01/24 00:20:56;;;;;;;2.35;0.70;;;;;;;;;;4953026;29;20463;-60
2024/01/24 00:23:24;;;;;;;3.70;0.70;;;;;;;;;;4952166;29;20039;-60
2024/01/24 00:25:51;;;;;;;1.23;0.50;;;;;;;;;;4952140;28;20046;-59
2024/01/24 00:28:17;;;;;;;1.48;0.60;;;;;;;;;;4948432;29;20376;-59
2024/01/24 00:30:43;;;;;;;3.40;0.60;;;;;;;;;;4952860;29;20046;-60
2024/01/24 00:33:10;;;;;;;3.20;0.50;;;;;;;;;;4952727;28;20058;-60
2024/01/24 00:35:36;;;;;;;6.45;0.73;;;;;;;;;;4952393;28;20399;-59
2024/01/24 00:38:03;;;;;;;3.20;0.45;;;;;;;;;;4950896;28;20429;-59
2024/01/24 00:40:29;;;;;;;1.33;0.50;;;;;;;;;;4951956;28;20154;-60
2024/01/24 00:42:55;;;;;;;3.15;0.60;;;;;;;;;;4952535;28;20046;-59
2024/01/24 00:45:21;;;;;;;3.13;1.00;;;;;;;;;;4952041;28;20414;-60
2024/01/24 00:47:47;;;;;;;4.57;0.77;;;;;;;;;;4952327;29;20039;-59
2024/01/24 00:50:13;;;;;;;5.13;0.50;;;;;;;;;;4966733;28;20054;-59
2024/01/24 00:52:39;;;;;;;5.03;0.93;;;;;;;;;;4951788;28;20054;-60
2024/01/24 00:55:06;;;;;;;3.00;0.60;;;;;;;;;;4951644;29;20039;-60
2024/01/24 00:57:32;;;;;;;2.63;0.60;;;;;;;;;;4949805;28;20062;-59
2024/01/24 00:59:58;;;;;;;2.20;0.80;;;;;;;;;;4952293;28;20062;-59
2024/01/24 01:02:24;;;;;;;3.25;1.58;;;;;;;;;;4950810;29;20065;-58
2024/01/24 01:04:50;;;;;;;5.25;0.57;;;;;;;;;;4951312;28;20348;-59
2024/01/24 01:07:16;;;;;;;0.68;0.50;;;;;;;;;;4951787;29;20043;-58
2024/01/24 01:09:43;;;;;;;2.10;0.57;;;;;;;;;;4951965;28;20055;-59
2024/01/24 01:12:09;;;;;;;3.08;0.65;;;;;;;;;;4951431;29;20043;-59
2024/01/24 01:14:35;;;;;;;1.50;0.50;;;;;;;;;;4951557;28;20058;-59
2024/01/24 01:17:02;;;;;;;1.70;0.60;;;;;;;;;;4952265;29;20039;-59
2024/01/24 01:19:28;;;;;;;4.32;0.70;;;;;;;;;;4951693;29;20821;-59
2024/01/24 01:21:54;;;;;;;5.85;0.75;;;;;;;;;;4951603;29;20038;-58
2024/01/24 01:24:20;;;;;;;2.40;0.98;;;;;;;;;;4950765;29;20637;-59
2024/01/24 01:26:46;;;;;;;1.20;0.50;;;;;;;;;;4949924;28;20042;-59
2024/01/24 01:29:12;;;;;;;3.28;0.80;;;;;;;;;;4949258;29;20546;-58
2024/01/24 01:31:38;;;;;;;1.08;0.50;;;;;;;;;;4951620;29;20047;-59
2024/01/24 01:34:04;;;;;;;3.38;0.60;;;;;;;;;;4951094;29;20063;-58
2024/01/24 01:36:31;;;;;;;2.97;0.70;;;;;;;;;;4951046;29;20047;-59
2024/01/24 01:38:57;;;;;;;1.85;0.43;;;;;;;;;;4951913;28;20047;-59
2024/01/24 01:41:24;;;;;;;1.52;0.52;;;;;;;;;;4951067;29;20118;-60
2024/01/24 01:43:50;;;;;;;5.05;0.70;;;;;;;;;;4951546;29;20410;-60
2024/01/24 01:46:21;;;;;;;3.22;0.70;;;;;;;;;;4950665;28;20035;-59
2024/01/24 01:48:49;;;;;;;4.85;0.68;;;;;;;;;;4950459;28;20047;-60
2024/01/24 01:51:17;;;;;;;5.15;0.90;;;;;;;;;;4950829;29;20043;-59
2024/01/24 01:53:45;;;;;;;7.55;1.02;;;;;;;;;;4951061;28;20050;-60
2024/01/24 01:56:13;;;;;;;2.15;1.00;;;;;;;;;;4950497;28;20046;-59
2024/01/24 01:58:40;;;;;;;1.45;0.55;;;;;;;;;;4949974;29;20043;-59
2024/01/24 02:01:07;;;;;;;1.88;0.50;;;;;;;;;;4948159;29;20055;-59
2024/01/24 02:03:39;;;;;;;2.78;0.80;;;;;;;;;;4949573;28;20054;-59
2024/01/24 02:06:05;;;;;;;2.42;0.50;;;;;;;;;;4950403;29;20039;-59
2024/01/24 02:08:35;;;;;;;1.30;0.50;;;;;;;;;;4946499;28;20059;-60
2024/01/24 02:11:02;;;;;;;3.50;0.70;;;;;;;;;;4951176;28;20043;-59
2024/01/24 02:13:32;;;;;;;1.30;0.63;;;;;;;;;;4950532;29;20042;-62
2024/01/24 02:15:58;;;;;;;;;;;;;;;;;;4950881;28;20482;-60
2024/01/24 02:18:24;;;;;;;3.20;0.47;;;;;;;;;;4950142;28;19930;-60
2024/01/24 02:20:51;;;;;;;5.63;0.70;;;;;;;;;;4951263;28;20043;-60
2024/01/24 02:23:18;;;;;;;7.30;1.38;;;;;;;;;;4950685;28;20051;-59
2024/01/24 02:25:45;;;;;;;2.78;1.00;;;;;;;;;;4950433;29;20035;-59
2024/01/24 02:28:11;;;;;;;5.20;0.70;;;;;;;;;;4946482;28;20047;-59
2024/01/24 02:30:37;;;;;;;1.05;0.60;;;;;;;;;;4949549;28;20414;-60
2024/01/24 02:33:03;;;;;;;1.80;0.60;;;;;;;;;;4950091;29;20059;-59
2024/01/24 02:35:29;;;;;;;6.28;0.77;;;;;;;;;;4950084;29;20035;-59
2024/01/24 02:37:55;;;;;;;2.38;0.60;;;;;;;;;;4950689;28;20047;-60
2024/01/24 02:40:22;;;;;;;3.05;0.47;;;;;;;;;;4950551;28;20058;-59
2024/01/24 02:42:48;;;;;;;1.35;0.50;;;;;;;;;;4948880;29;20054;-59
2024/01/24 02:45:14;;;;;;;1.73;0.60;;;;;;;;;;4949700;28;20355;-61
2024/01/24 02:47:40;;;;;;;3.17;0.60;;;;;;;;;;4950543;29;20036;-60
2024/01/24 02:50:07;;;;;;;1.60;0.50;;;;;;;;;;4950322;28;20047;-58
2024/01/24 02:52:33;;;;;;;2.60;0.70;;;;;;;;;;4946803;28;20455;-59
2024/01/24 02:54:59;;;;;;;2.15;0.60;;;;;;;;;;4950012;29;20039;-58
2024/01/24 02:57:25;;;;;;;1.70;0.60;;;;;;;;;;4950159;28;20059;-59
2024/01/24 02:59:51;;;;;;;3.35;0.90;;;;;;;;;;4949977;28;20062;-60
2024/01/24 03:02:18;;;;;;;2.35;0.70;;;;;;;;;;4954576;28;20062;-60
2024/01/24 03:04:44;;;;;;;1.77;1.13;;;;;;;;;;4954056;28;20031;-59
2024/01/24 03:07:10;;;;;;;2.13;0.60;;;;;;;;;;4954048;29;20419;-59
2024/01/24 03:09:36;;;;;;;2.15;0.70;;;;;;;;;;4954170;28;20090;-59
2024/01/24 03:12:02;;;;;;;2.13;0.50;;;;;;;;;;4954215;28;20066;-59
2024/01/24 03:14:28;;;;;;;2.45;0.80;;;;;;;;;;4953479;29;20039;-60
2024/01/24 03:16:54;;;;;;;2.90;0.85;;;;;;;;;;4954500;28;20039;-58
2024/01/24 03:19:21;;;;;;;4.05;0.80;;;;;;;;;;4954340;28;20054;-58
2024/01/24 03:21:47;;;;;;;4.57;0.90;;;;;;;;;;4969338;28;20043;-61
2024/01/24 03:24:13;;;;;;;1.52;0.60;;;;;;;;;;4953843;29;20039;-61
2024/01/24 03:26:39;;;;;;;1.85;0.60;;;;;;;;;;4952314;28;20035;-60
2024/01/24 03:29:05;;;;;;;1.55;0.70;;;;;;;;;;4957268;28;20497;-60
2024/01/24 03:31:32;;;;;;;1.15;0.70;;;;;;;;;;4954471;28;20054;-60
2024/01/24 03:33:58;;;;;;;3.97;0.80;;;;;;;;;;4954019;29;20046;-60
2024/01/24 03:36:24;;;;;;;1.08;0.65;;;;;;;;;;4953734;28;20062;-58
2024/01/24 03:38:50;;;;;;;2.30;0.88;;;;;;;;;;4953706;28;20050;-59
2024/01/24 03:41:16;;;;;;;2.80;0.82;;;;;;;;;;4951002;29;20522;-59
2024/01/24 03:43:42;;;;;;;3.30;0.95;;;;;;;;;;4954506;28;20051;-59
2024/01/24 03:46:08;;;;;;;1.35;0.68;;;;;;;;;;4953372;29;20046;-58
2024/01/24 03:48:34;;;;;;;1.50;0.80;;;;;;;;;;4948845;29;20066;-58
2024/01/24 03:51:01;;;;;;;3.85;0.80;;;;;;;;;;4954236;28;20058;-59
2024/01/24 03:53:27;;;;;;;2.05;0.88;;;;;;;;;;4953628;28;20051;-59
2024/01/24 03:55:53;;;;;;;3.90;0.70;;;;;;;;;;4952618;28;20035;-58
2024/01/24 03:58:20;;;;;;;2.35;0.70;;;;;;;;;;4953065;29;20050;-58
2024/01/24 04:00:46;;;;;;;2.13;0.65;;;;;;;;;;4954219;28;20047;-59
2024/01/24 04:03:12;;;;;;;2.95;0.73;;;;;;;;;;4953406;28;20047;-58
2024/01/24 04:05:38;;;;;;;2.05;0.70;;;;;;;;;;4953116;28;20426;-58
2024/01/24 04:08:04;;;;;;;2.33;0.70;;;;;;;;;;4953162;29;20042;-59
2024/01/24 04:10:30;;;;;;;2.40;0.80;;;;;;;;;;4953416;28;20430;-59
2024/01/24 04:12:57;;;;;;;2.83;1.00;;;;;;;;;;4952848;28;20031;-59
2024/01/24 04:15:23;;;;;;;2.00;0.70;;;;;;;;;;4952900;28;20039;-59
2024/01/24 04:17:49;;;;;;;1.52;0.70;;;;;;;;;;4953542;28;20059;-59
2024/01/24 04:20:15;;;;;;;3.38;1.23;;;;;;;;;;4953162;29;20050;-59
2024/01/24 04:22:41;;;;;;;2.42;0.90;;;;;;;;;;4952982;29;20054;-60
2024/01/24 04:25:07;;;;;;;2.72;1.30;;;;;;;;;;4952748;28;20051;-59
2024/01/24 04:27:34;;;;;;;4.53;0.90;;;;;;;;;;4949272;28;20395;-61
2024/01/24 04:30:00;;;;;;;2.40;1.00;;;;;;;;;;4953424;28;20422;-59
2024/01/24 04:32:26;;;;;;;2.55;0.60;;;;;;;;;;4951521;29;20047;-59
2024/01/24 04:34:53;;;;;;;2.95;0.85;;;;;;;;;;4952847;28;20035;-59
2024/01/24 04:37:19;;;;;;;2.15;0.80;;;;;;;;;;4952743;29;20058;-60
2024/01/24 04:39:45;;;;;;;2.67;0.82;;;;;;;;;;4950005;29;20031;-62
2024/01/24 04:42:11;;;;;;;2.03;0.80;;;;;;;;;;4952298;28;20075;-60
2024/01/24 04:44:37;;;;;;;1.48;0.60;;;;;;;;;;4952423;28;20039;-59
2024/01/24 04:47:04;;;;;;;1.80;0.73;;;;;;;;;;4952858;28;20054;-59
2024/01/24 04:49:30;;;;;;;3.88;1.08;;;;;;;;;;4952267;29;20494;-58
2024/01/24 04:51:56;;;;;;;1.85;0.70;;;;;;;;;;4951967;28;20047;-59
2024/01/24 04:54:22;;;;;;;2.72;1.10;;;;;;;;;;4951419;28;20070;-60
2024/01/24 04:56:48;;;;;;;1.67;0.70;;;;;;;;;;4952042;29;20035;-59
2024/01/24 04:59:18;;;;;;;2.35;0.90;;;;;;;;;;4952099;28;20066;-59
2024/01/24 05:01:44;;;;;;;2.20;0.80;;;;;;;;;;4952300;28;20062;-59
2024/01/24 05:04:11;;;;;;;3.47;0.90;;;;;;;;;;4951817;28;20419;-59
2024/01/24 05:06:37;;;;;;;6.75;1.10;;;;;;;;;;4951732;29;20035;-59
2024/01/24 05:09:04;;;;;;;2.67;1.00;;;;;;;;;;4952035;29;20134;-59
2024/01/24 05:11:30;;;;;;;2.60;1.20;;;;;;;;;;4951690;28;20371;-61
2024/01/24 05:14:00;;;;;;;3.60;1.17;;;;;;;;;;4952092;28;20050;-60
2024/01/24 05:16:28;;;;;;;3.78;1.20;;;;;;;;;;4951524;28;20609;-60
2024/01/24 05:18:55;;;;;;;5.67;0.97;;;;;;;;;;4952421;28;20054;-59
2024/01/24 05:21:21;;;;;;;2.72;0.88;;;;;;;;;;4951254;29;20433;-59
2024/01/24 05:23:47;;;;;;;6.97;1.52;;;;;;;;;;4950847;28;20046;-60
2024/01/24 05:26:13;;;;;;;2.97;1.20;;;;;;;;;;4951280;28;20031;-59
2024/01/24 05:28:40;;;;;;;3.40;1.63;;;;;;;;;;4951410;28;20051;-60
2024/01/24 05:31:06;;;;;;;2.72;1.10;;;;;;;;;;4951512;28;20075;-59
2024/01/24 05:33:33;;;;;;;2.45;1.20;;;;;;;;;;4951691;29;20035;-59
2024/01/24 05:36:00;;;;;;;3.95;1.13;;;;;;;;;;4949861;29;20503;-60
2024/01/24 05:38:27;;;;;;;4.82;1.00;;;;;;;;;;4951255;28;20069;-60
2024/01/24 05:40:53;;;;;;;5.47;0.95;;;;;;;;;;4951007;28;20039;-59
2024/01/24 05:43:19;;;;;;;3.03;1.00;;;;;;;;;;4949919;28;20446;-59
2024/01/24 05:45:49;;;;;;;3.00;1.20;;;;;;;;;;4951236;29;20046;-58
2024/01/24 05:48:16;;;;;;;3.83;1.10;;;;;;;;;;4951193;29;20035;-59
2024/01/24 05:50:42;;;;;;;5.35;1.40;;;;;;;;;;4951302;28;20448;-58
2024/01/24 05:53:08;;;;;;;3.80;1.20;;;;;;;;;;4950727;28;20047;-59
2024/01/24 05:55:36;;;;;;;6.18;1.30;;;;;;;;;;4950265;28;20134;-59
2024/01/24 05:58:02;;;;;;;5.60;1.33;;;;;;;;;;4947459;29;20050;-61
2024/01/24 06:00:28;;;;;;;4.65;1.13;;;;;;;;;;4950801;29;20035;-59
2024/01/24 06:02:54;;;;;;;5.65;1.10;;;;;;;;;;4951171;29;20116;-59
2024/01/24 06:05:21;;;;;;;7.63;2.33;;;;;;;;;;4950341;28;20043;-59
2024/01/24 06:07:49;;;;;;;2.90;0.88;;;;;;;;;;4951403;28;20117;-58
2024/01/24 06:10:16;;;;;;;3.00;0.90;;;;;;;;;;4950840;28;20051;-58
2024/01/24 06:12:42;;;;;;;4.80;0.90;;;;;;;;;;4950138;29;20406;-59
2024/01/24 06:15:09;;;;;;;4.10;1.15;;;;;;;;;;4950348;28;20086;-58
2024/01/24 06:17:35;;;;;;;3.72;0.82;;;;;;;;;;4950979;28;20055;-58
2024/01/24 06:20:01;;;;;;;3.08;1.08;;;;;;;;;;4950973;28;20388;-58
2024/01/24 06:22:27;;;;;;;3.10;1.10;;;;;;;;;;4950667;28;20047;-58
2024/01/24 06:24:55;;;;;;;3.83;1.00;;;;;;;;;;4950934;28;20055;-58
2024/01/24 06:27:21;;;;;;;2.17;1.15;;;;;;;;;;4950411;28;20410;-58
2024/01/24 06:29:47;;;;;;;3.92;1.95;;;;;;;;;;4950928;28;20042;-58
2024/01/24 06:32:13;;;;;;;2.42;0.95;;;;;;;;;;4950687;29;20039;-57
2024/01/24 06:34:39;;;;;;;4.38;1.33;;;;;;;;;;4950199;28;20127;-59
2024/01/24 06:37:07;;;;;;;3.70;1.00;;;;;;;;;;4950957;28;20522;-58
2024/01/24 06:39:33;;;;;;;5.20;1.30;;;;;;;;;;4950865;28;20043;-58
2024/01/24 06:41:59;;;;;;;4.00;1.05;;;;;;;;;;4950115;28;20058;-59
2024/01/24 06:44:26;;;;;;;3.60;1.25;;;;;;;;;;4950397;28;20051;-59
2024/01/24 06:46:53;;;;;;;2.15;1.30;;;;;;;;;;4945901;28;20054;-57
2024/01/24 06:49:19;;;;;;;3.13;1.60;;;;;;;;;;4949308;29;20043;-61
2024/01/24 06:51:46;;;;;;;4.93;1.05;;;;;;;;;;4943940;29;20057;-58
2024/01/24 06:54:13;;;;;;;1.83;1.02;;;;;;;;;;4950038;29;20439;-58
2024/01/24 06:56:39;;;;;;;2.03;0.90;;;;;;;;;;4947635;29;20423;-60
2024/01/24 06:59:05;;;;;;;4.85;1.30;;;;;;;;;;4946797;28;20054;-59
2024/01/24 07:01:31;;;;;;;2.58;1.38;;;;;;;;;;4950691;28;20372;-60
2024/01/24 07:03:57;;;;;;;3.05;1.08;;;;;;;;;;4948482;28;20035;-60
2024/01/24 07:06:23;;;;;;;2.60;1.20;;;;;;;;;;4947970;28;20437;-58
2024/01/24 07:08:50;;;;;;;3.17;1.10;;;;;;;;;;4948139;28;20055;-57
2024/01/24 07:11:17;;;;;;;4.85;1.20;;;;;;;;;;4949988;28;20364;-58
2024/01/24 07:13:43;;;;;;;4.82;1.50;;;;;;;;;;4951583;28;20042;-58
2024/01/24 07:16:09;;;;;;;3.20;1.20;;;;;;;;;;4944516;28;20111;-59
2024/01/24 07:18:36;;;;;;;2.85;1.27;;;;;;;;;;4950824;28;20043;-59
2024/01/24 07:21:03;;;;;;;3.97;1.15;;;;;;;;;;4952032;28;20046;-59
2024/01/24 07:23:29;;;;;;;3.45;1.20;;;;;;;;;;4948827;28;20058;-59
2024/01/24 07:25:55;;;;;;;4.35;1.48;;;;;;;;;;4951264;28;20042;-58
2024/01/24 07:28:22;;;;;;;2.67;1.52;;;;;;;;;;4947262;28;20055;-57
2024/01/24 07:30:48;;;;;;;3.72;1.02;;;;;;;;;;4950628;28;20047;-58
2024/01/24 07:33:15;;;;;;;1.85;1.42;;;;;;;;;;4951378;28;20039;-59
2024/01/24 07:35:41;;;;;;;11.93;4.22;;;;;;;;;;4951411;28;20027;-58
2024/01/24 07:38:07;;;;;;;2.78;1.13;;;;;;;;;;4949896;28;20043;-59
2024/01/24 07:40:33;;;;;;;5.88;1.27;;;;;;;;;;4949530;28;20043;-57
2024/01/24 07:42:59;;;;;;;2.22;1.10;;;;;;;;;;4951542;28;20070;-58
2024/01/24 07:45:27;;;;;;;3.22;1.13;;;;;;;;;;4945054;28;20035;-58
2024/01/24 07:47:53;;;;;;;3.42;1.00;;;;;;;;;;4947389;28;20514;-58
2024/01/24 07:50:19;;;;;;;2.92;1.25;;;;;;;;;;4953461;28;20518;-58
2024/01/24 07:52:46;;;;;;;3.17;1.10;;;;;;;;;;4951897;28;20043;-58
2024/01/24 07:55:13;;;;;;;1.95;0.70;;;;;;;;;;4949745;28;20490;-58
2024/01/24 07:57:40;;;;;;;6.95;1.77;;;;;;;;;;4950405;28;20031;-57
2024/01/24 08:00:07;;;;;;;7.82;1.20;;;;;;;;;;4948022;28;20051;-59
2024/01/24 08:02:33;;;;;;;3.08;1.02;;;;;;;;;;4952894;28;20050;-59
2024/01/24 08:04:59;;;;;;;3.72;0.90;;;;;;;;;;4952609;28;20051;-58
2024/01/24 08:07:27;;;;;;;5.85;1.30;;;;;;;;;;4952197;28;20519;-59
2024/01/24 08:09:53;;;;;;;1.67;0.98;;;;;;;;;;4950944;28;20043;-58
2024/01/24 08:12:19;;;;;;;1.80;1.20;;;;;;;;;;4953011;28;20055;-58
2024/01/24 08:14:45;;;;;;;1.42;0.55;;;;;;;;;;4952457;28;20058;-60
2024/01/24 08:17:11;;;;;;;0.95;0.60;;;;;;;;;;4953246;28;20038;-57
2024/01/24 08:19:38;;;;;;;1.42;0.98;;;;;;;;;;4953511;28;20128;-58
2024/01/24 08:22:05;;;;;;;1.23;0.55;;;;;;;;;;4953217;28;20054;-59
2024/01/24 08:24:31;;;;;;;1.98;0.85;;;;;;;;;;4944306;28;20062;-57
2024/01/24 08:26:58;;;;;;;1.40;0.40;;;;;;;;;;4946926;28;20047;-58
2024/01/24 08:29:25;;;;;;;1.75;0.55;;;;;;;;;;4950802;28;20039;-59
2024/01/24 08:31:51;;;;;;;1.85;0.75;;;;;;;;;;4948488;28;20058;-58
2024/01/24 08:34:18;;;;;;;0.52;0.45;;;;;;;;;;4947294;28;20051;-59
2024/01/24 08:36:44;;;;;;;1.55;0.60;;;;;;;;;;4956878;28;20138;-58
2024/01/24 08:39:10;;;;;;;0.95;0.45;;;;;;;;;;4952439;28;20042;-57
2024/01/24 08:41:36;;;;;;;1.00;0.60;;;;;;;;;;4949979;28;20402;-58
2024/01/24 08:44:04;;;;;;;0.57;0.55;;;;;;;;;;4950875;28;20047;-58
2024/01/24 08:46:31;;;;;;;0.98;0.52;;;;;;;;;;4949182;28;20066;-58
2024/01/24 08:48:57;;;;;;;0.93;0.50;;;;;;;;;;4945214;28;20515;-58
2024/01/24 08:51:25;;;;;;;1.08;0.85;;;;;;;;;;4951962;28;20070;-58
2024/01/24 08:53:51;;;;;;;2.00;0.60;;;;;;;;;;4950484;28;20051;-59
2024/01/24 08:56:18;;;;;;;0.40;0.30;;;;;;;;;;4948815;28;20066;-59
2024/01/24 08:58:44;;;;;;;0.60;0.35;;;;;;;;;;4946479;28;20031;-59
2024/01/24 09:01:10;;;;;;;1.52;0.70;;;;;;;;;;4949478;28;20039;-59
2024/01/24 09:03:37;;;;;;;2.55;0.82;;;;;;;;;;4946936;28;20039;-57
2024/01/24 09:06:04;;;;;;;0.65;0.50;;;;;;;;;;4948098;28;20062;-58
2024/01/24 09:08:30;;;;;;;1.67;0.73;;;;;;;;;;4945803;28;20471;-59
2024/01/24 09:10:56;;;;;;;1.67;0.82;;;;;;;;;;4945518;28;20043;-58
2024/01/24 09:13:22;;;;;;;0.52;0.50;;;;;;;;;;4950912;28;20050;-58
2024/01/24 09:15:49;;;;;;;0.45;0.40;;;;;;;;;;4949264;28;20406;-59
2024/01/24 09:18:18;;;;;;;0.73;0.52;;;;;;;;;;4965471;28;20059;-58
2024/01/24 09:20:45;;;;;;;1.02;0.70;;;;;;;;;;4954337;28;20034;-58
2024/01/24 09:23:12;;;;;;;1.95;0.80;;;;;;;;;;4951095;28;20047;-59
2024/01/24 09:25:38;;;;;;;1.27;0.50;;;;;;;;;;4952326;28;20114;-58
2024/01/24 09:28:08;;;;;;;0.30;0.30;;;;;;;;;;4956170;28;20039;-57
2024/01/24 09:30:34;;;;;;;0.57;0.38;;;;;;;;;;4954245;28;20521;-58
2024/01/24 09:33:01;;;;;;;2.75;1.27;;;;;;;;;;4946028;28;20043;-59
2024/01/24 09:35:27;;;;;;;1.10;0.50;;;;;;;;;;4946200;28;20059;-57
2024/01/24 09:37:53;;;;;;;0.82;0.50;;;;;;;;;;4949632;28;20046;-58
2024/01/24 09:40:20;;;;;;;0.88;0.55;;;;;;;;;;4948819;28;20463;-59
2024/01/24 09:42:46;;;;;;;1.27;0.40;;;;;;;;;;4947716;28;20631;-59
2024/01/24 09:45:17;;;;;;;0.50;0.40;;;;;;;;;;4949067;28;20050;-59
2024/01/24 09:47:47;;;;;;;1.02;0.70;;;;;;;;;;4943115;28;20050;-58
2024/01/24 09:50:14;;;;;;;1.60;0.63;;;;;;;;;;4951318;28;20038;-58
2024/01/24 09:52:41;;;;;;;1.65;0.32;;;;;;;;;;4949494;28;20039;-58
2024/01/24 09:55:13;;;;;;;0.47;0.30;;;;;;;;;;4945103;28;20050;-58
2024/01/24 09:57:39;;;;;;;0.70;0.50;;;;;;;;;;4943890;28;20042;-58
2024/01/24 10:00:07;;;;;;;2.47;0.52;;;;;;;;;;4950795;28;20413;-59
2024/01/24 10:02:33;;;;;;;0.75;0.40;;;;;;;;;;4948253;28;20399;-58
2024/01/24 10:05:00;;;;;;;10.93;3.88;;;;;;;;;;4951233;28;20410;-60
2024/01/24 10:07:27;;;;;;;1.42;0.50;;;;;;;;;;4949718;28;20050;-57
2024/01/24 10:10:07;;;;;;;1.02;0.70;;;;;;;;;;4951238;28;20054;-59
2024/01/24 10:12:34;;;;;;;1.23;0.55;;;;;;;;;;4947969;28;20046;-59
2024/01/24 10:15:01;;;;;;;1.65;0.88;;;;;;;;;;4951072;28;20047;-58
2024/01/24 10:17:28;;;;;;;1.42;1.08;;;;;;;;;;4948935;28;20505;-59
2024/01/24 10:20:06;;;;;;;1.15;0.88;;;;;;;;;;4946865;28;20039;-59
2024/01/24 10:22:33;;;;;;;1.25;0.80;;;;;;;;;;4954105;28;20035;-58
2024/01/24 10:24:59;;;;;;;1.60;1.00;;;;;;;;;;4952480;28;20047;-58
2024/01/24 10:27:26;;;;;;;0.30;0.30;;;;;;;;;;4951610;28;20054;-59
2024/01/24 10:29:52;;;;;;;1.13;0.60;;;;;;;;;;4953755;28;20039;-59
2024/01/24 10:32:20;;;;;;;1.48;0.50;;;;;;;;;;4954060;28;20054;-58
2024/01/24 10:34:49;;;;;;;0.60;0.50;;;;;;;;;;4950542;28;20051;-58
2024/01/24 10:37:18;;;;;;;1.20;0.75;;;;;;;;;;4945413;28;20058;-61
2024/01/24 10:39:44;;;;;;;0.73;0.43;;;;;;;;;;4951007;28;20047;-57
2024/01/24 10:42:15;;;;;;;0.50;0.47;;;;;;;;;;4950251;28;20399;-58
2024/01/24 10:44:43;;;;;;;0.55;0.40;;;;;;;;;;4951205;28;20415;-58
2024/01/24 10:47:09;;;;;;;1.23;0.85;;;;;;;;;;4951427;28;20054;-57
2024/01/24 10:49:37;;;;;;;1.00;0.60;;;;;;;;;;4949787;28;20062;-58
2024/01/24 10:52:04;;;;;;;0.38;0.38;;;;;;;;;;4951692;28;20051;-58
2024/01/24 10:54:31;;;;;;;1.15;0.60;;;;;;;;;;4951133;28;20039;-59
2024/01/24 10:56:59;;;;;;;0.52;0.40;;;;;;;;;;4951239;28;20043;-59
2024/01/24 10:59:29;;;;;;;1.33;0.57;;;;;;;;;;4952042;28;20043;-58
2024/01/24 11:01:55;;;;;;;0.80;0.40;;;;;;;;;;4952299;28;20046;-58
2024/01/24 11:04:22;;;;;;;0.63;0.40;;;;;;;;;;4952279;28;20131;-58
2024/01/24 11:07:01;;;;;;;1.20;0.60;;;;;;;;;;4953629;28;20391;-60
2024/01/24 11:09:36;;;;;;;1.15;0.80;;;;;;;;;;4953316;28;20066;-58
2024/01/24 11:12:02;;;;;;;1.27;0.90;;;;;;;;;;4950668;28;20499;-59
2024/01/24 11:14:33;;;;;;;0.77;0.50;;;;;;;;;;4952700;28;20051;-58
2024/01/24 11:17:02;;;;;;;1.10;0.60;;;;;;;;;;4954265;28;20525;-58
2024/01/24 11:19:29;;;;;;;0.70;0.60;;;;;;;;;;4953956;28;20046;-58
2024/01/24 11:22:04;;;;;;;1.10;0.85;;;;;;;;;;4951279;28;20043;-58
2024/01/24 11:24:39;;;;;;;2.00;1.30;;;;;;;;;;4957776;28;20039;-58
2024/01/24 11:27:24;;;;;;;1.38;0.93;;;;;;;;;;4955256;28;20058;-58
2024/01/24 11:29:55;;;;;;;1.95;1.10;;;;;;;;;;4953698;28;20046;-59
2024/01/24 11:32:57;;;;;;;1.58;0.73;;;;;;;;;;4955117;28;20035;-58
2024/01/24 11:35:26;;;;;;;1.80;0.63;;;;;;;;;;4938932;28;20055;-58
2024/01/24 11:37:58;;;;;;;1.85;0.70;;;;;;;;;;4949536;28;20043;-58
2024/01/24 11:40:24;;;;;;;1.90;1.10;;;;;;;;;;4954372;28;20514;-58
2024/01/24 11:42:54;;;;;;;1.15;0.50;;;;;;;;;;4954875;28;20027;-58
2024/01/24 11:45:22;;;;;;;1.92;1.10;;;;;;;;;;4956660;28;20410;-57
2024/01/24 11:47:48;;;;;;;1.35;1.02;;;;;;;;;;4936708;29;20051;-58
2024/01/24 11:50:15;;;;;;;1.42;0.90;;;;;;;;;;4937846;29;20059;-58
2024/01/24 11:52:42;;;;;;;2.17;1.13;;;;;;;;;;4954520;28;20402;-58
2024/01/24 11:55:09;;;;;;;2.72;1.60;;;;;;;;;;4922583;28;20043;-59
2024/01/24 11:57:35;;;;;;;1.40;0.90;;;;;;;;;;4952665;28;20050;-59
2024/01/24 12:00:02;;;;;;;4.25;1.67;;;;;;;;;;4954832;28;20065;-60
2024/01/24 12:02:28;;;;;;;2.13;1.15;;;;;;;;;;4955074;28;20521;-60
2024/01/24 12:04:54;;;;;;;3.67;1.85;;;;;;;;;;4954035;28;20043;-61
2024/01/24 12:07:20;;;;;;;6.68;3.17;;;;;;;;;;4954375;28;20051;-58
2024/01/24 12:09:48;;;;;;;2.47;1.20;;;;;;;;;;4957990;28;20050;-59
2024/01/24 12:12:14;;;;;;;5.22;1.90;;;;;;;;;;4958352;28;20047;-58
2024/01/24 12:14:41;;;;;;;5.13;1.95;;;;;;;;;;4961321;28;20034;-59
2024/01/24 12:17:07;;;;;;;4.30;1.88;;;;;;;;;;4960275;28;20047;-59
2024/01/24 12:19:34;;;;;;;3.92;1.80;;;;;;;;;;4958791;28;20047;-60
2024/01/24 12:22:01;;;;;;;6.93;2.22;;;;;;;;;;4955816;28;20027;-58
2024/01/24 12:24:27;;;;;;;3.78;1.88;;;;;;;;;;4956144;28;20398;-60
2024/01/24 12:26:53;;;;;;;5.72;1.88;;;;;;;;;;4950003;28;20502;-59
2024/01/24 12:29:21;;;;;;;1.85;0.93;;;;;;;;;;4955297;28;20040;-59
2024/01/24 12:31:51;;;;;;;4.00;1.40;;;;;;;;;;4952941;29;20395;-59
2024/01/24 12:34:21;;;;;;;3.85;1.13;;;;;;;;;;4955356;28;20051;-57
2024/01/24 12:36:48;;;;;;;3.35;1.90;;;;;;;;;;4938043;28;20031;-57
2024/01/24 12:39:15;;;;;;;5.45;2.58;;;;;;;;;;4955350;28;20055;-62
2024/01/24 12:41:41;;;;;;;3.55;1.30;;;;;;;;;;4958067;28;20053;-61
2024/01/24 12:44:10;;;;;;;5.18;1.38;;;;;;;;;;4956266;28;20039;-59
2024/01/24 12:46:38;;;;;;;7.40;2.30;;;;;;;;;;4950877;28;20042;-60
2024/01/24 12:49:04;;;;;;;20.00;5.50;;;;;;;;;;4955958;28;20415;-60
2024/01/24 12:51:32;;;;;;;9.40;3.33;;;;;;;;;;4950451;28;20043;-59
2024/01/24 12:53:58;;;;;;;7.43;2.83;;;;;;;;;;4956280;28;20066;-59
2024/01/24 12:56:25;;;;;;;14.00;3.75;;;;;;;;;;4953817;28;20051;-59
2024/01/24 12:58:51;;;;;;;6.47;1.98;;;;;;;;;;4958066;28;20050;-59
2024/01/24 13:01:17;;;;;;;2.92;1.23;;;;;;;;;;4951552;28;20054;-59
2024/01/24 13:03:44;;;;;;;6.43;2.30;;;;;;;;;;4954555;28;20035;-59
2024/01/24 13:06:10;;;;;;;37.58;15.02;;;;;;;;;;4956743;28;20047;-58
2024/01/24 13:08:36;;;;;;;52.75;22.67;;;;;;;;;;4955498;28;20392;-59
2024/01/24 13:11:03;;;;;;;25.77;9.88;;;;;;;;;;4954725;28;20047;-60
2024/01/24 13:13:29;;;;;;;11.30;4.50;;;;;;;;;;4953478;28;20046;-60
2024/01/24 13:15:57;;;;;;;10.65;4.35;;;;;;;;;;4953863;28;20039;-60
2024/01/24 13:18:23;;;;;;;12.93;4.10;;;;;;;;;;4955768;28;20066;-59
2024/01/24 13:20:49;;;;;;;3.05;1.67;;;;;;;;;;4954884;28;20035;-60
2024/01/24 13:23:15;;;;;;;4.32;1.83;;;;;;;;;;4955538;28;20039;-59
2024/01/24 13:25:41;;;;;;;4.80;2.50;;;;;;;;;;4954994;28;20058;-61
2024/01/24 13:28:08;;;;;;;4.75;1.30;;;;;;;;;;4954816;28;20046;-58
2024/01/24 13:30:34;;;;;;;4.97;2.25;;;;;;;;;;4955236;28;20046;-58
2024/01/24 13:33:01;;;;;;;6.43;1.90;;;;;;;;;;4954818;28;20058;-58
2024/01/24 13:35:27;;;;;;;3.92;1.92;;;;;;;;;;4953781;28;20059;-59
2024/01/24 13:37:53;;;;;;;5.55;2.00;;;;;;;;;;4951796;28;20047;-59
2024/01/24 13:40:21;;;;;;;2.88;1.50;;;;;;;;;;4951320;28;20047;-59
2024/01/24 13:42:47;;;;;;;4.13;1.30;;;;;;;;;;4951314;28;20047;-59
2024/01/24 13:45:14;;;;;;;7.78;1.60;;;;;;;;;;4951229;28;20054;-58
2024/01/24 13:47:40;;;;;;;7.93;1.83;;;;;;;;;;4952002;28;20066;-59
2024/01/24 13:50:07;;;;;;;6.63;1.85;;;;;;;;;;4950418;28;20044;-58
2024/01/24 13:52:33;;;;;;;6.80;2.28;;;;;;;;;;4951977;28;20050;-57
2024/01/24 13:54:59;;;;;;;5.90;1.30;;;;;;;;;;4950294;28;20046;-60
2024/01/24 13:57:25;;;;;;;5.45;1.42;;;;;;;;;;4952325;28;20047;-59
2024/01/24 13:59:51;;;;;;;14.68;3.63;;;;;;;;;;4952092;28;20046;-58
2024/01/24 14:02:17;;;;;;;18.08;6.65;;;;;;;;;;4952364;28;20414;-59
2024/01/24 14:04:44;;;;;;;16.38;5.55;;;;;;;;;;4953065;28;20051;-59
2024/01/24 14:07:10;;;;;;;7.22;3.25;;;;;;;;;;4953053;28;20039;-58
2024/01/24 14:09:36;;;;;;;9.48;3.28;;;;;;;;;;4947770;28;20054;-61
2024/01/24 14:12:03;;;;;;;4.35;1.63;;;;;;;;;;4951897;28;20051;-59
2024/01/24 14:14:29;;;;;;;2.63;0.82;;;;;;;;;;4954248;28;20039;-58
2024/01/24 14:16:55;;;;;;;1.73;0.77;;;;;;;;;;4955794;28;20054;-58
2024/01/24 14:19:23;;;;;;;2.28;1.02;;;;;;;;;;4953972;28;20406;-58
2024/01/24 14:21:49;;;;;;;4.18;0.75;;;;;;;;;;4950777;28;20395;-58
2024/01/24 14:24:16;;;;;;;2.50;0.80;;;;;;;;;;4953390;28;20043;-58
2024/01/24 14:26:42;;;;;;;1.85;0.65;;;;;;;;;;4950397;28;20566;-58
2024/01/24 14:29:08;;;;;;;4.35;0.90;;;;;;;;;;4953029;28;20418;-59
2024/01/24 14:31:34;;;;;;;3.15;1.83;;;;;;;;;;4949597;28;20423;-58
2024/01/24 14:34:00;;;;;;;2.03;0.77;;;;;;;;;;4949401;28;20046;-58
2024/01/24 14:36:33;;;;;;;2.75;1.17;;;;;;;;;;4951339;28;20050;-58
2024/01/24 14:38:59;;;;;;;4.75;1.02;;;;;;;;;;4949714;28;20039;-58
2024/01/24 14:41:25;;;;;;;1.55;0.75;;;;;;;;;;4950460;28;20058;-58